sensor_id;sensor_type;location;lat;lon;timestamp;pressure;altitude;pressure_sealevel;temperature;humidity
25759;BME280;13604;52.496;13.456;2023-03-15T00:01:20;100305.44;;;-0.19;91.60
25759;BME280;13604;52.496;13.456;2023-03-15T00:03:47;100333.41;;;0.00;91.13
25759;BME280;13604;52.496;13.456;2023-03-15T00:06:13;100338.63;;;0.02;91.56
25759;BME280;13604;52.496;13.456;2023-03-15T00:08:38;100339.16;;;-0.03;91.40
25759;BME280;13604;52.496;13.456;2023-03-15T00:11:04;100342.69;;;0.10;90.51
25759;BME280;13604;52.496;13.456;2023-03-15T00:13:30;100330.84;;;0.00;90.26
25759;BME280;13604;52.496;13.456;2023-03-15T00:15:59;100349.13;;;0.05;90.74
25759;BME280;13604;52.496;13.456;2023-03-15T00:18:25;100362.72;;;0.04;90.57
25759;BME280;13604;52.496;13.456;2023-03-15T00:20:50;100335.59;;;-0.15;90.82
25759;BME280;13604;52.496;13.456;2023-03-15T00:23:16;100378.31;;;-0.04;91.13
25759;BME280;13604;52.496;13.456;2023-03-15T00:25:46;100374.88;;;-0.04;91.23
25759;BME280;13604;52.496;13.456;2023-03-15T00:28:12;100372.34;;;-0.14;91.59
25759;BME280;13604;52.496;13.456;2023-03-15T00:30:37;100382.59;;;-0.14;91.96
25759;BME280;13604;52.496;13.456;2023-03-15T00:33:03;100358.69;;;-0.35;92.18
25759;BME280;13604;52.496;13.456;2023-03-15T00:35:30;100402.66;;;-0.09;91.36
25759;BME280;13604;52.496;13.456;2023-03-15T00:37:58;100392.81;;;-0.14;91.25
25759;BME280;13604;52.496;13.456;2023-03-15T00:40:23;100402.03;;;-0.06;90.82
25759;BME280;13604;52.496;13.456;2023-03-15T00:42:49;100394.84;;;-0.10;90.94
25759;BME280;13604;52.496;13.456;2023-03-15T00:45:19;100410.47;;;-0.07;91.03
25759;BME280;13604;52.496;13.456;2023-03-15T00:47:48;100417.25;;;0.03;89.67
25759;BME280;13604;52.496;13.456;2023-03-15T00:50:13;100397.94;;;-0.14;89.77
25759;BME280;13604;52.496;13.456;2023-03-15T00:52:38;100423.53;;;-0.04;90.27
25759;BME280;13604;52.496;13.456;2023-03-15T00:55:09;100398.97;;;-0.12;89.37
25759;BME280;13604;52.496;13.456;2023-03-15T00:57:37;100434.03;;;-0.01;89.65
25759;BME280;13604;52.496;13.456;2023-03-15T01:00:02;100425.69;;;-0.09;90.39
25759;BME280;13604;52.496;13.456;2023-03-15T01:02:29;100429.69;;;-0.12;91.02
25759;BME280;13604;52.496;13.456;2023-03-15T01:04:55;100425.19;;;-0.15;90.61
25759;BME280;13604;52.496;13.456;2023-03-15T01:07:20;100431.06;;;-0.06;90.30
25759;BME280;13604;52.496;13.456;2023-03-15T01:09:45;100433.13;;;-0.12;90.44
25759;BME280;13604;52.496;13.456;2023-03-15T01:12:11;100406.28;;;-0.27;90.62
25759;BME280;13604;52.496;13.456;2023-03-15T01:14:36;100437.50;;;-0.11;91.05
25759;BME280;13604;52.496;13.456;2023-03-15T01:17:03;100445.16;;;-0.11;91.31
25759;BME280;13604;52.496;13.456;2023-03-15T01:19:28;100448.50;;;-0.22;91.70
25759;BME280;13604;52.496;13.456;2023-03-15T01:21:53;100457.69;;;-0.14;91.28
25759;BME280;13604;52.496;13.456;2023-03-15T01:24:19;100448.38;;;-0.24;91.28
25759;BME280;13604;52.496;13.456;2023-03-15T01:26:44;100449.66;;;-0.29;91.64
25759;BME280;13604;52.496;13.456;2023-03-15T01:29:10;100452.84;;;-0.42;92.30
25759;BME280;13604;52.496;13.456;2023-03-15T01:31:36;100474.72;;;-0.35;92.78
25759;BME280;13604;52.496;13.456;2023-03-15T01:34:02;100460.66;;;-0.40;92.62
25759;BME280;13604;52.496;13.456;2023-03-15T01:36:27;100464.00;;;-0.41;92.80
25759;BME280;13604;52.496;13.456;2023-03-15T01:38:52;100457.97;;;-0.52;93.52
25759;BME280;13604;52.496;13.456;2023-03-15T01:41:19;100461.94;;;-0.45;93.26
25759;BME280;13604;52.496;13.456;2023-03-15T01:43:44;100456.81;;;-0.56;93.59
25759;BME280;13604;52.496;13.456;2023-03-15T01:49:06;100488.94;;;-0.39;92.62
25759;BME280;13604;52.496;13.456;2023-03-15T01:51:41;100487.38;;;-0.37;92.90
25759;BME280;13604;52.496;13.456;2023-03-15T01:56:44;100479.69;;;-0.37;92.97
25759;BME280;13604;52.496;13.456;2023-03-15T01:59:15;100464.09;;;-0.50;92.80
25759;BME280;13604;52.496;13.456;2023-03-15T02:01:43;100473.69;;;-0.47;93.00
25759;BME280;13604;52.496;13.456;2023-03-15T02:04:11;100489.53;;;-0.51;93.32
25759;BME280;13604;52.496;13.456;2023-03-15T02:06:37;100489.03;;;-0.58;94.16
25759;BME280;13604;52.496;13.456;2023-03-15T02:09:09;100477.88;;;-0.68;94.37
25759;BME280;13604;52.496;13.456;2023-03-15T02:11:39;100481.88;;;-0.62;94.97
25759;BME280;13604;52.496;13.456;2023-03-15T02:14:05;100456.63;;;-0.78;94.36
25759;BME280;13604;52.496;13.456;2023-03-15T02:16:30;100465.84;;;-0.80;94.81
25759;BME280;13604;52.496;13.456;2023-03-15T02:18:56;100485.16;;;-0.73;95.88
25759;BME280;13604;52.496;13.456;2023-03-15T02:21:41;100492.69;;;-0.75;96.14
25759;BME280;13604;52.496;13.456;2023-03-15T02:26:49;100503.03;;;-0.83;96.91
25759;BME280;13604;52.496;13.456;2023-03-15T02:29:15;100490.09;;;-0.95;97.26
25759;BME280;13604;52.496;13.456;2023-03-15T02:31:41;100505.06;;;-0.79;96.80
25759;BME280;13604;52.496;13.456;2023-03-15T02:34:07;100500.66;;;-1.01;97.48
25759;BME280;13604;52.496;13.456;2023-03-15T02:36:34;100491.72;;;-1.06;98.16
25759;BME280;13604;52.496;13.456;2023-03-15T02:39:00;100524.50;;;-0.91;97.97
25759;BME280;13604;52.496;13.456;2023-03-15T02:41:32;100525.03;;;-0.85;98.08
25759;BME280;13604;52.496;13.456;2023-03-15T02:44:03;100529.84;;;-0.99;98.15
25759;BME280;13604;52.496;13.456;2023-03-15T02:46:29;100528.50;;;-1.04;98.77
25759;BME280;13604;52.496;13.456;2023-03-15T02:48:55;100525.66;;;-1.17;98.94
25759;BME280;13604;52.496;13.456;2023-03-15T02:51:23;100542.28;;;-1.12;100.00
25759;BME280;13604;52.496;13.456;2023-03-15T02:53:49;100550.59;;;-1.15;100.00
25759;BME280;13604;52.496;13.456;2023-03-15T02:56:15;100544.59;;;-1.15;100.00
25759;BME280;13604;52.496;13.456;2023-03-15T02:58:42;100556.44;;;-1.16;100.00
25759;BME280;13604;52.496;13.456;2023-03-15T03:01:11;100555.28;;;-1.19;100.00
25759;BME280;13604;52.496;13.456;2023-03-15T03:03:38;100569.50;;;-1.13;100.00
25759;BME280;13604;52.496;13.456;2023-03-15T03:06:04;100537.78;;;-1.25;100.00
25759;BME280;13604;52.496;13.456;2023-03-15T03:08:29;100561.28;;;-1.19;100.00
25759;BME280;13604;52.496;13.456;2023-03-15T03:10:54;100572.91;;;-1.22;100.00
25759;BME280;13604;52.496;13.456;2023-03-15T03:13:20;100581.06;;;-1.26;100.00
25759;BME280;13604;52.496;13.456;2023-03-15T03:15:48;100557.53;;;-1.52;100.00
25759;BME280;13604;52.496;13.456;2023-03-15T03:18:13;100555.66;;;-1.44;100.00
25759;BME280;13604;52.496;13.456;2023-03-15T03:20:39;100579.22;;;-1.38;100.00
25759;BME280;13604;52.496;13.456;2023-03-15T03:23:04;100577.53;;;-1.37;100.00
25759;BME280;13604;52.496;13.456;2023-03-15T03:25:31;100565.88;;;-1.44;100.00
25759;BME280;13604;52.496;13.456;2023-03-15T03:27:57;100584.75;;;-1.33;100.00
25759;BME280;13604;52.496;13.456;2023-03-15T03:30:23;100580.72;;;-1.21;100.00
25759;BME280;13604;52.496;13.456;2023-03-15T03:32:49;100573.31;;;-1.18;100.00
25759;BME280;13604;52.496;13.456;2023-03-15T03:35:14;100593.09;;;-0.96;100.00
25759;BME280;13604;52.496;13.456;2023-03-15T03:37:40;100569.34;;;-0.95;100.00
25759;BME280;13604;52.496;13.456;2023-03-15T03:40:05;100600.13;;;-0.64;99.49
25759;BME280;13604;52.496;13.456;2023-03-15T03:42:32;100611.41;;;-0.62;99.18
25759;BME280;13604;52.496;13.456;2023-03-15T03:44:57;100602.47;;;-0.57;99.18
25759;BME280;13604;52.496;13.456;2023-03-15T03:47:22;100614.28;;;-0.49;98.42
25759;BME280;13604;52.496;13.456;2023-03-15T03:49:48;100605.75;;;-0.39;97.44
25759;BME280;13604;52.496;13.456;2023-03-15T03:52:13;100610.59;;;-0.32;96.43
25759;BME280;13604;52.496;13.456;2023-03-15T03:54:38;100596.53;;;-0.37;95.93
25759;BME280;13604;52.496;13.456;2023-03-15T03:57:06;100601.38;;;-0.40;96.28
25759;BME280;13604;52.496;13.456;2023-03-15T03:59:32;100619.53;;;-0.47;96.93
25759;BME280;13604;52.496;13.456;2023-03-15T04:01:57;100617.97;;;-0.56;96.85
25759;BME280;13604;52.496;13.456;2023-03-15T04:04:22;100623.38;;;-0.71;97.37
25759;BME280;13604;52.496;13.456;2023-03-15T04:06:50;100627.44;;;-0.84;98.10
25759;BME280;13604;52.496;13.456;2023-03-15T04:09:15;100632.88;;;-0.89;98.75
25759;BME280;13604;52.496;13.456;2023-03-15T04:11:41;100613.69;;;-1.14;99.02
25759;BME280;13604;52.496;13.456;2023-03-15T04:14:11;100610.81;;;-1.27;100.00
25759;BME280;13604;52.496;13.456;2023-03-15T04:16:37;100638.38;;;-1.33;100.00
25759;BME280;13604;52.496;13.456;2023-03-15T04:19:03;100639.56;;;-1.30;100.00
25759;BME280;13604;52.496;13.456;2023-03-15T04:21:29;100634.50;;;-1.38;100.00
25759;BME280;13604;52.496;13.456;2023-03-15T04:23:57;100651.16;;;-1.33;100.00
25759;BME280;13604;52.496;13.456;2023-03-15T04:26:23;100639.34;;;-1.41;100.00
25759;BME280;13604;52.496;13.456;2023-03-15T04:28:52;100630.84;;;-1.51;100.00
25759;BME280;13604;52.496;13.456;2023-03-15T04:31:17;100660.81;;;-1.39;100.00
25759;BME280;13604;52.496;13.456;2023-03-15T04:33:42;100666.88;;;-1.48;100.00
25759;BME280;13604;52.496;13.456;2023-03-15T04:36:07;100656.59;;;-1.58;100.00
25759;BME280;13604;52.496;13.456;2023-03-15T04:38:33;100655.25;;;-1.63;100.00
25759;BME280;13604;52.496;13.456;2023-03-15T04:40:59;100615.91;;;-1.93;100.00
25759;BME280;13604;52.496;13.456;2023-03-15T04:43:24;100656.75;;;-1.65;100.00
25759;BME280;13604;52.496;13.456;2023-03-15T04:45:50;100632.09;;;-1.83;100.00
25759;BME280;13604;52.496;13.456;2023-03-15T04:48:16;100637.66;;;-1.88;100.00
25759;BME280;13604;52.496;13.456;2023-03-15T04:50:41;100635.44;;;-1.93;100.00
25759;BME280;13604;52.496;13.456;2023-03-15T04:53:06;100656.75;;;-1.84;100.00
25759;BME280;13604;52.496;13.456;2023-03-15T04:55:31;100665.88;;;-1.77;100.00
25759;BME280;13604;52.496;13.456;2023-03-15T04:57:57;100647.78;;;-1.98;100.00
25759;BME280;13604;52.496;13.456;2023-03-15T05:00:22;100677.63;;;-1.88;100.00
25759;BME280;13604;52.496;13.456;2023-03-15T05:02:48;100686.59;;;-1.83;100.00
25759;BME280;13604;52.496;13.456;2023-03-15T05:05:20;100683.16;;;-1.83;100.00
25759;BME280;13604;52.496;13.456;2023-03-15T05:07:46;100686.16;;;-1.88;100.00
25759;BME280;13604;52.496;13.456;2023-03-15T05:10:12;100687.00;;;-1.97;100.00
25759;BME280;13604;52.496;13.456;2023-03-15T05:12:37;100701.31;;;-1.80;100.00
25759;BME280;13604;52.496;13.456;2023-03-15T05:15:03;100694.84;;;-1.77;100.00
25759;BME280;13604;52.496;13.456;2023-03-15T05:17:28;100697.88;;;-1.81;100.00
25759;BME280;13604;52.496;13.456;2023-03-15T05:19:53;100716.00;;;-1.78;100.00
25759;BME280;13604;52.496;13.456;2023-03-15T05:22:19;100716.94;;;-1.77;100.00
25759;BME280;13604;52.496;13.456;2023-03-15T05:24:50;100708.25;;;-1.88;100.00
25759;BME280;13604;52.496;13.456;2023-03-15T05:27:16;100721.41;;;-1.75;100.00
25759;BME280;13604;52.496;13.456;2023-03-15T05:29:41;100722.28;;;-1.65;100.00
25759;BME280;13604;52.496;13.456;2023-03-15T05:32:07;100720.38;;;-1.77;100.00
25759;BME280;13604;52.496;13.456;2023-03-15T05:34:32;100717.91;;;-1.67;100.00
25759;BME280;13604;52.496;13.456;2023-03-15T05:36:58;100741.09;;;-1.46;100.00
25759;BME280;13604;52.496;13.456;2023-03-15T05:39:23;100737.88;;;-1.35;100.00
25759;BME280;13604;52.496;13.456;2023-03-15T05:41:48;100753.38;;;-1.14;100.00
25759;BME280;13604;52.496;13.456;2023-03-15T05:44:14;100722.44;;;-1.17;100.00
25759;BME280;13604;52.496;13.456;2023-03-15T05:46:39;100724.81;;;-1.10;100.00
25759;BME280;13604;52.496;13.456;2023-03-15T05:49:04;100758.72;;;-0.83;100.00
25759;BME280;13604;52.496;13.456;2023-03-15T05:51:30;100760.47;;;-0.73;99.68
25759;BME280;13604;52.496;13.456;2023-03-15T05:53:55;100760.88;;;-0.69;98.74
25759;BME280;13604;52.496;13.456;2023-03-15T05:56:20;100773.81;;;-0.67;98.73
25759;BME280;13604;52.496;13.456;2023-03-15T05:58:46;100765.44;;;-0.75;98.59
25759;BME280;13604;52.496;13.456;2023-03-15T06:01:11;100776.75;;;-0.63;98.03
25759;BME280;13604;52.496;13.456;2023-03-15T06:03:36;100768.88;;;-0.75;98.23
25759;BME280;13604;52.496;13.456;2023-03-15T06:06:02;100762.03;;;-0.84;98.55
25759;BME280;13604;52.496;13.456;2023-03-15T06:08:27;100791.28;;;-0.72;98.40
25759;BME280;13604;52.496;13.456;2023-03-15T06:10:52;100783.06;;;-0.78;97.85
25759;BME280;13604;52.496;13.456;2023-03-15T06:13:18;100802.19;;;-0.64;97.73
25759;BME280;13604;52.496;13.456;2023-03-15T06:15:46;100799.03;;;-0.43;97.25
25759;BME280;13604;52.496;13.456;2023-03-15T06:18:11;100789.75;;;-0.32;95.62
25759;BME280;13604;52.496;13.456;2023-03-15T06:20:38;100812.19;;;0.00;94.46
25759;BME280;13604;52.496;13.456;2023-03-15T06:23:03;100826.88;;;0.22;93.40
25759;BME280;13604;52.496;13.456;2023-03-15T06:25:29;100831.50;;;0.26;92.08
25759;BME280;13604;52.496;13.456;2023-03-15T06:27:54;100831.19;;;0.42;93.29
25759;BME280;13604;52.496;13.456;2023-03-15T06:30:20;100821.81;;;0.42;90.52
25759;BME280;13604;52.496;13.456;2023-03-15T06:32:45;100837.59;;;0.47;90.53
25759;BME280;13604;52.496;13.456;2023-03-15T06:35:11;100838.47;;;0.47;90.38
25759;BME280;13604;52.496;13.456;2023-03-15T06:37:36;100824.06;;;0.29;90.16
25759;BME280;13604;52.496;13.456;2023-03-15T06:40:03;100859.34;;;0.42;91.16
25759;BME280;13604;52.496;13.456;2023-03-15T06:42:31;100871.28;;;0.41;91.83
25759;BME280;13604;52.496;13.456;2023-03-15T06:44:56;100867.91;;;0.32;94.40
25759;BME280;13604;52.496;13.456;2023-03-15T06:47:22;100858.91;;;0.27;97.82
25759;BME280;13604;52.496;13.456;2023-03-15T06:49:47;100864.38;;;0.21;97.67
25759;BME280;13604;52.496;13.456;2023-03-15T06:52:15;100841.16;;;0.09;97.79
25759;BME280;13604;52.496;13.456;2023-03-15T06:54:40;100875.31;;;0.29;97.89
25759;BME280;13604;52.496;13.456;2023-03-15T06:57:06;100875.06;;;0.36;98.02
25759;BME280;13604;52.496;13.456;2023-03-15T06:59:31;100877.44;;;0.43;97.41
25759;BME280;13604;52.496;13.456;2023-03-15T07:01:56;100874.75;;;0.52;96.69
25759;BME280;13604;52.496;13.456;2023-03-15T07:04:22;100883.03;;;0.68;96.70
25759;BME280;13604;52.496;13.456;2023-03-15T07:06:47;100883.97;;;0.79;95.12
25759;BME280;13604;52.496;13.456;2023-03-15T07:09:12;100885.25;;;0.84;94.78
25759;BME280;13604;52.496;13.456;2023-03-15T07:11:37;100859.59;;;0.84;94.40
25759;BME280;13604;52.496;13.456;2023-03-15T07:14:03;100886.06;;;1.14;93.27
25759;BME280;13604;52.496;13.456;2023-03-15T07:16:28;100884.03;;;1.20;91.92
25759;BME280;13604;52.496;13.456;2023-03-15T07:18:53;100888.25;;;1.51;90.82
25759;BME280;13604;52.496;13.456;2023-03-15T07:21:20;100891.81;;;1.83;88.76
25759;BME280;13604;52.496;13.456;2023-03-15T07:23:46;100876.06;;;2.21;87.71
25759;BME280;13604;52.496;13.456;2023-03-15T07:26:11;100854.63;;;2.43;82.85
25759;BME280;13604;52.496;13.456;2023-03-15T07:28:36;100865.84;;;2.33;82.20
25759;BME280;13604;52.496;13.456;2023-03-15T07:31:03;100885.59;;;2.45;82.65
25759;BME280;13604;52.496;13.456;2023-03-15T07:33:31;100878.25;;;2.27;82.56
25759;BME280;13604;52.496;13.456;2023-03-15T07:35:56;100875.66;;;2.27;82.14
25759;BME280;13604;52.496;13.456;2023-03-15T07:38:24;100899.22;;;2.11;83.40
25759;BME280;13604;52.496;13.456;2023-03-15T07:40:50;100884.94;;;2.15;83.65
25759;BME280;13604;52.496;13.456;2023-03-15T07:43:16;100899.41;;;2.35;82.42
25759;BME280;13604;52.496;13.456;2023-03-15T07:45:42;100904.28;;;2.32;82.46
25759;BME280;13604;52.496;13.456;2023-03-15T07:48:07;100910.34;;;2.32;82.63
25759;BME280;13604;52.496;13.456;2023-03-15T07:50:32;100913.72;;;2.21;81.93
25759;BME280;13604;52.496;13.456;2023-03-15T07:52:57;100915.53;;;2.22;81.83
25759;BME280;13604;52.496;13.456;2023-03-15T07:55:23;100899.44;;;2.25;82.10
25759;BME280;13604;52.496;13.456;2023-03-15T07:57:49;100922.84;;;2.50;82.50
25759;BME280;13604;52.496;13.456;2023-03-15T08:00:15;100892.06;;;2.39;80.84
25759;BME280;13604;52.496;13.456;2023-03-15T08:02:40;100922.97;;;2.62;80.56
25759;BME280;13604;52.496;13.456;2023-03-15T08:05:06;100914.25;;;2.82;80.51
25759;BME280;13604;52.496;13.456;2023-03-15T08:07:31;100931.06;;;3.10;79.02
25759;BME280;13604;52.496;13.456;2023-03-15T08:09:57;100922.38;;;3.20;77.14
25759;BME280;13604;52.496;13.456;2023-03-15T08:12:23;100917.38;;;3.56;80.70
25759;BME280;13604;52.496;13.456;2023-03-15T08:14:48;100934.09;;;3.84;76.03
25759;BME280;13604;52.496;13.456;2023-03-15T08:17:14;100940.00;;;3.72;74.69
25759;BME280;13604;52.496;13.456;2023-03-15T08:19:40;100929.25;;;3.31;74.97
25759;BME280;13604;52.496;13.456;2023-03-15T08:22:05;100939.38;;;3.18;76.43
25759;BME280;13604;52.496;13.456;2023-03-15T08:24:31;100902.03;;;2.79;77.13
25759;BME280;13604;52.496;13.456;2023-03-15T08:26:56;100937.78;;;2.86;76.60
25759;BME280;13604;52.496;13.456;2023-03-15T08:29:21;100941.47;;;2.90;77.22
25759;BME280;13604;52.496;13.456;2023-03-15T08:31:47;100948.34;;;2.79;77.39
25759;BME280;13604;52.496;13.456;2023-03-15T08:34:12;100925.56;;;2.51;78.58
25759;BME280;13604;52.496;13.456;2023-03-15T08:36:37;100954.28;;;2.78;79.39
25759;BME280;13604;52.496;13.456;2023-03-15T08:39:03;100962.13;;;2.80;78.13
25759;BME280;13604;52.496;13.456;2023-03-15T08:41:30;100957.66;;;2.67;78.19
25759;BME280;13604;52.496;13.456;2023-03-15T08:43:55;100975.38;;;2.74;77.86
25759;BME280;13604;52.496;13.456;2023-03-15T08:46:21;100972.91;;;2.75;77.82
25759;BME280;13604;52.496;13.456;2023-03-15T08:48:46;100966.50;;;2.70;78.15
25759;BME280;13604;52.496;13.456;2023-03-15T08:51:12;100975.19;;;2.83;78.19
25759;BME280;13604;52.496;13.456;2023-03-15T08:53:37;100958.47;;;2.88;76.60
25759;BME280;13604;52.496;13.456;2023-03-15T08:56:03;100970.66;;;2.90;76.01
25759;BME280;13604;52.496;13.456;2023-03-15T08:58:28;100993.19;;;2.83;73.92
25759;BME280;13604;52.496;13.456;2023-03-15T09:00:54;100977.50;;;2.47;76.50
25759;BME280;13604;52.496;13.456;2023-03-15T09:03:19;100998.31;;;2.61;76.52
25759;BME280;13604;52.496;13.456;2023-03-15T09:05:45;100978.94;;;2.44;77.44
25759;BME280;13604;52.496;13.456;2023-03-15T09:08:10;101002.19;;;2.55;76.43
25759;BME280;13604;52.496;13.456;2023-03-15T09:10:35;101003.59;;;2.42;77.78
25759;BME280;13604;52.496;13.456;2023-03-15T09:13:01;100986.19;;;2.27;77.28
25759;BME280;13604;52.496;13.456;2023-03-15T09:15:26;101002.94;;;2.54;76.86
25759;BME280;13604;52.496;13.456;2023-03-15T09:17:51;101023.69;;;3.10;75.60
25759;BME280;13604;52.496;13.456;2023-03-15T09:20:17;101016.63;;;3.74;73.88
25759;BME280;13604;52.496;13.456;2023-03-15T09:22:56;101017.69;;;4.46;70.52
25759;BME280;13604;52.496;13.456;2023-03-15T09:25:23;101009.16;;;5.43;66.34
25759;BME280;13604;52.496;13.456;2023-03-15T09:27:49;101030.63;;;5.67;64.39
25759;BME280;13604;52.496;13.456;2023-03-15T09:30:14;101024.44;;;6.67;61.89
25759;BME280;13604;52.496;13.456;2023-03-15T09:32:40;101029.09;;;6.46;61.35
25759;BME280;13604;52.496;13.456;2023-03-15T09:35:09;101029.47;;;5.75;62.44
25759;BME280;13604;52.496;13.456;2023-03-15T09:37:36;101036.50;;;5.15;64.52
25759;BME280;13604;52.496;13.456;2023-03-15T09:40:02;101027.25;;;4.13;66.93
25759;BME280;13604;52.496;13.456;2023-03-15T09:42:39;101047.44;;;4.07;68.25
25759;BME280;13604;52.496;13.456;2023-03-15T09:45:14;101044.50;;;3.68;68.97
25759;BME280;13604;52.496;13.456;2023-03-15T09:47:50;101050.59;;;3.58;69.97
25759;BME280;13604;52.496;13.456;2023-03-15T09:50:20;101064.56;;;3.72;70.01
25759;BME280;13604;52.496;13.456;2023-03-15T09:52:53;101062.53;;;3.68;69.31
25759;BME280;13604;52.496;13.456;2023-03-15T09:55:25;101067.00;;;3.93;69.75
25759;BME280;13604;52.496;13.456;2023-03-15T09:57:53;101068.34;;;3.99;68.93
25759;BME280;13604;52.496;13.456;2023-03-15T10:00:38;101054.84;;;3.80;68.13
25759;BME280;13604;52.496;13.456;2023-03-15T10:03:05;101055.28;;;3.74;68.23
25759;BME280;13604;52.496;13.456;2023-03-15T10:05:42;101078.94;;;3.80;69.59
25759;BME280;13604;52.496;13.456;2023-03-15T10:08:13;101072.25;;;3.94;67.82
25759;BME280;13604;52.496;13.456;2023-03-15T10:10:48;101046.97;;;4.00;66.04
25759;BME280;13604;52.496;13.456;2023-03-15T10:13:27;101086.13;;;4.88;65.46
25759;BME280;13604;52.496;13.456;2023-03-15T10:16:27;101087.44;;;5.79;63.46
25759;BME280;13604;52.496;13.456;2023-03-15T10:19:01;101073.59;;;8.47;53.72
25759;BME280;13604;52.496;13.456;2023-03-15T10:21:44;101083.69;;;8.57;52.01
25759;BME280;13604;52.496;13.456;2023-03-15T10:24:27;101082.41;;;6.96;55.15
25759;BME280;13604;52.496;13.456;2023-03-15T10:26:58;101028.69;;;6.01;58.64
25759;BME280;13604;52.496;13.456;2023-03-15T10:29:25;101090.84;;;6.03;59.66
25759;BME280;13604;52.496;13.456;2023-03-15T10:31:51;101092.88;;;6.07;59.64
25759;BME280;13604;52.496;13.456;2023-03-15T10:34:18;101088.78;;;6.36;59.79
25759;BME280;13604;52.496;13.456;2023-03-15T10:36:48;101079.81;;;7.09;56.46
25759;BME280;13604;52.496;13.456;2023-03-15T10:39:18;101085.91;;;7.93;53.86
25759;BME280;13604;52.496;13.456;2023-03-15T10:41:45;101080.53;;;9.55;49.98
25759;BME280;13604;52.496;13.456;2023-03-15T10:44:15;101070.28;;;12.04;45.81
25759;BME280;13604;52.496;13.456;2023-03-15T10:46:41;101095.31;;;14.64;39.50
25759;BME280;13604;52.496;13.456;2023-03-15T10:49:11;101080.72;;;17.17;34.29
25759;BME280;13604;52.496;13.456;2023-03-15T10:51:42;101087.47;;;16.37;34.20
25759;BME280;13604;52.496;13.456;2023-03-15T10:54:21;101091.84;;;14.91;35.79
25759;BME280;13604;52.496;13.456;2023-03-15T10:57:04;101087.81;;;11.89;40.71
25759;BME280;13604;52.496;13.456;2023-03-15T10:59:33;101098.06;;;10.24;45.03
25759;BME280;13604;52.496;13.456;2023-03-15T11:04:43;101092.53;;;7.33;51.79
25759;BME280;13604;52.496;13.456;2023-03-15T11:07:11;101097.44;;;6.36;54.21
25759;BME280;13604;52.496;13.456;2023-03-15T11:09:41;101095.44;;;6.32;56.64
25759;BME280;13604;52.496;13.456;2023-03-15T11:12:10;101077.13;;;6.29;55.61
25759;BME280;13604;52.496;13.456;2023-03-15T11:14:43;101099.66;;;7.92;54.54
25759;BME280;13604;52.496;13.456;2023-03-15T11:17:30;101076.63;;;9.47;49.14
25759;BME280;13604;52.496;13.456;2023-03-15T11:19:59;101101.31;;;9.39;48.02
25759;BME280;13604;52.496;13.456;2023-03-15T11:22:33;101100.34;;;10.34;47.14
25759;BME280;13604;52.496;13.456;2023-03-15T11:24:58;101107.91;;;14.75;39.56
25759;BME280;13604;52.496;13.456;2023-03-15T11:27:25;101084.03;;;18.79;33.07
25759;BME280;13604;52.496;13.456;2023-03-15T11:29:55;101095.38;;;22.05;28.15
25759;BME280;13604;52.496;13.456;2023-03-15T11:32:24;101108.84;;;22.86;25.70
25759;BME280;13604;52.496;13.456;2023-03-15T11:34:59;101108.97;;;21.07;26.92
25759;BME280;13604;52.496;13.456;2023-03-15T11:37:27;101100.81;;;20.03;27.91
25759;BME280;13604;52.496;13.456;2023-03-15T11:42:35;101094.38;;;21.77;25.93
25759;BME280;13604;52.496;13.456;2023-03-15T11:45:05;101098.03;;;21.96;26.21
25759;BME280;13604;52.496;13.456;2023-03-15T11:47:49;101075.72;;;20.45;25.60
25759;BME280;13604;52.496;13.456;2023-03-15T11:50:15;101102.09;;;15.39;31.47
25759;BME280;13604;52.496;13.456;2023-03-15T11:52:41;101100.41;;;18.13;29.65
25759;BME280;13604;52.496;13.456;2023-03-15T11:55:16;101090.53;;;20.28;27.34
25759;BME280;13604;52.496;13.456;2023-03-15T11:57:44;101097.44;;;21.01;26.70
25759;BME280;13604;52.496;13.456;2023-03-15T12:00:20;101110.75;;;18.50;28.05
25759;BME280;13604;52.496;13.456;2023-03-15T12:02:55;101097.03;;;18.20;30.20
25759;BME280;13604;52.496;13.456;2023-03-15T12:05:44;101110.28;;;21.76;25.30
25759;BME280;13604;52.496;13.456;2023-03-15T12:08:23;101095.81;;;20.26;26.49
25759;BME280;13604;52.496;13.456;2023-03-15T12:10:51;101096.72;;;16.88;29.64
25759;BME280;13604;52.496;13.456;2023-03-15T12:13:22;101102.81;;;14.05;34.57
25759;BME280;13604;52.496;13.456;2023-03-15T12:15:49;101080.53;;;12.00;36.20
25759;BME280;13604;52.496;13.456;2023-03-15T12:18:20;101106.84;;;10.42;39.15
25759;BME280;13604;52.496;13.456;2023-03-15T12:20:56;101105.63;;;10.36;39.48
25759;BME280;13604;52.496;13.456;2023-03-15T12:23:47;101101.78;;;10.45;40.59
25759;BME280;13604;52.496;13.456;2023-03-15T12:26:40;101094.16;;;14.32;35.02
25759;BME280;13604;52.496;13.456;2023-03-15T12:29:21;101090.31;;;17.92;29.25
25759;BME280;13604;52.496;13.456;2023-03-15T12:34:46;101111.47;;;22.63;24.63
25759;BME280;13604;52.496;13.456;2023-03-15T12:37:17;101112.34;;;22.52;23.34
25759;BME280;13604;52.496;13.456;2023-03-15T12:39:58;101117.69;;;22.71;23.70
25759;BME280;13604;52.496;13.456;2023-03-15T12:53:26;101132.00;;;13.47;33.63
25759;BME280;13604;52.496;13.456;2023-03-15T12:55:53;101130.19;;;12.21;35.12
25759;BME280;13604;52.496;13.456;2023-03-15T12:58:25;101116.94;;;12.16;34.51
25759;BME280;13604;52.496;13.456;2023-03-15T13:00:52;101133.84;;;14.18;33.11
25759;BME280;13604;52.496;13.456;2023-03-15T13:03:21;101129.38;;;16.64;28.80
25759;BME280;13604;52.496;13.456;2023-03-15T13:06:30;101126.44;;;16.20;27.53
25759;BME280;13604;52.496;13.456;2023-03-15T13:11:56;101124.34;;;16.73;28.35
25759;BME280;13604;52.496;13.456;2023-03-15T13:14:38;101112.06;;;19.86;24.54
25759;BME280;13604;52.496;13.456;2023-03-15T13:19:55;101129.09;;;13.18;30.57